Bidwell, Ohio
Current Conditions -  °F | °C
As of 7:35 AM on Sunday 23 Nov 2014 (Local Time) from K3I2 Reporting Station
Overcast Overcast  
Wind Chill: 39°   Ceiling: 6000
Heat Index: 39°   Visibility: 10mi
Dew Point: 34°   Wind: 0mph
Humidity: 81%   Direction: NA
Pressure: 30.09"   Gusts: NA
Location:  38.92°N, 82.3°W
Report Text: K3I2 231235Z AUTO 00000KT 10SM SCT044 BKN060 OVC100 04/01 A3009 RMK AO2
Loading
Personal Weather Stations






























Interactive Weather Map New forecast layout! Learn more

10-Day Weather Forecast

Advertisements
Track Severe Weather on mobile